Time;durP1;ratioP1;P1;durP2;ratioP2;P2;SDS_P1;SDS_P2;PMS_P1;PMS_P2;Temp;Humidity;BMP_temperature;BMP_pressure;BME280_temperature;BME280_humidity;BME280_pressure;Samples;Min_cycle;Max_cycle;Signal;HPM_P1;HPM_P2
2022/05/24 00:00:52;;;;;;;7.62;5.67;;;;;;;9.79;63.90;96534.56;1734304;82;25486;-76
2022/05/24 00:03:20;;;;;;;8.63;4.95;;;;;;;9.72;63.93;96530.09;1734277;82;27364;-76
2022/05/24 00:05:48;;;;;;;7.80;5.53;;;;;;;9.70;64.04;96520.06;1734103;82;25665;-75
2022/05/24 00:08:15;;;;;;;8.35;5.60;;;;;;;9.64;64.23;96521.52;1734199;82;25803;-76
2022/05/24 00:10:42;;;;;;;7.75;4.83;;;;;;;9.56;64.28;96517.23;1734097;82;25692;-76
2022/05/24 00:13:10;;;;;;;6.87;4.87;;;;;;;9.58;64.50;96518.36;1734247;82;25949;-75
2022/05/24 00:15:36;;;;;;;10.32;5.65;;;;;;;9.61;64.60;96514.70;1734200;82;28359;-75
2022/05/24 00:18:16;;;;;;;6.72;5.33;;;;;;;9.62;64.57;96517.69;1733855;82;25901;-76
2022/05/24 00:20:48;;;;;;;8.50;5.92;;;;;;;9.66;64.62;96522.91;1734023;82;25666;-75
2022/05/24 00:23:16;;;;;;;9.38;5.42;;;;;;;9.68;64.61;96522.16;1654178;86;27338;-76
2022/05/24 00:25:47;;;;;;;10.93;6.58;;;;;;;9.70;64.73;96521.41;1654054;86;26412;-75
2022/05/24 00:28:16;;;;;;;7.95;4.85;;;;;;;9.71;64.82;96528.45;1651771;86;27377;-76
2022/05/24 00:30:46;;;;;;;7.37;5.50;;;;;;;9.68;64.93;96532.94;1654213;86;25976;-75
2022/05/24 00:33:13;;;;;;;13.90;6.00;;;;;;;9.66;64.96;96529.64;1654268;86;25801;-76
2022/05/24 00:35:41;;;;;;;8.15;5.25;;;;;;;9.66;65.02;96528.30;1654211;86;25836;-76
2022/05/24 00:38:12;;;;;;;7.37;4.47;;;;;;;9.68;65.14;96522.16;1654420;86;25737;-76
2022/05/24 00:40:53;;;;;;;10.55;4.60;;;;;;;9.68;65.18;96519.47;1654655;86;27550;-76
2022/05/24 00:43:30;;;;;;;16.60;5.50;;;;;;;9.70;65.25;96522.77;1650962;86;25724;-76
2022/05/24 00:46:05;;;;;;;8.10;5.22;;;;;;;9.69;65.29;96514.90;1649308;86;25872;-74
2022/05/24 00:48:52;;;;;;;7.58;5.22;;;;;;;9.68;65.37;96520.81;1654404;86;25783;-75
2022/05/24 00:51:27;;;;;;;7.72;5.10;;;;;;;9.66;65.46;96513.47;1653630;86;25808;-74
2022/05/24 00:53:55;;;;;;;9.43;5.00;;;;;;;9.63;65.56;96516.64;1651308;86;27516;-74
2022/05/24 00:56:49;;;;;;;10.95;5.28;;;;;;;9.63;65.65;96513.95;1654232;86;25613;-74
2022/05/24 00:59:27;;;;;;;8.98;4.80;;;;;;;9.59;65.79;96501.97;1651887;86;25813;-75
2022/05/24 01:01:55;;;;;;;9.03;5.20;;;;;;;9.61;65.98;96514.70;1652275;86;26550;-74
2022/05/24 01:04:21;;;;;;;5.95;4.72;;;;;;;9.59;66.07;96507.36;1654301;86;25764;-74
2022/05/24 01:06:49;;;;;;;5.65;4.53;;;;;;;9.61;66.07;96506.61;1654342;86;27403;-75
2022/05/24 01:09:24;;;;;;;7.55;5.58;;;;;;;9.61;66.16;96503.92;1654293;86;25786;-74
2022/05/24 01:11:55;;;;;;;8.00;5.20;;;;;;;9.62;66.29;96498.83;1651620;86;25686;-74
2022/05/24 01:14:23;;;;;;;5.87;5.28;;;;;;;9.62;66.30;96500.18;1654350;86;25808;-74
2022/05/24 01:16:51;;;;;;;8.85;6.33;;;;;;;9.63;66.35;96498.31;1654335;86;25837;-74
2022/05/24 01:19:32;;;;;;;9.05;5.53;;;;;;;9.62;66.36;96496.14;1644305;82;27441;-74
2022/05/24 01:22:12;;;;;;;6.33;5.20;;;;;;;9.62;66.43;96489.41;1733699;82;25837;-74
2022/05/24 01:24:50;;;;;;;8.53;4.92;;;;;;;9.64;66.51;96487.30;1637672;87;25792;-74
2022/05/24 01:27:17;;;;;;;6.80;5.40;;;;;;;9.65;66.50;96485.44;1613233;88;25817;-74
2022/05/24 01:29:44;;;;;;;6.08;5.12;;;;;;;9.66;66.55;96488.43;1644798;87;25831;-74
2022/05/24 01:37:40;;;;;;;8.15;5.45;;;;;;;9.66;66.82;96501.34;1615010;88;25858;-74
2022/05/24 01:40:07;;;;;;;8.95;5.33;;;;;;;9.60;66.86;96493.37;1643279;87;25973;-74
2022/05/24 01:42:35;;;;;;;7.83;5.60;;;;;;;9.60;66.96;96492.84;1643242;87;25825;-74
2022/05/24 01:45:09;;;;;;;7.03;5.35;;;;;;;9.59;66.96;96496.58;1643118;85;28597;-74
2022/05/24 01:47:37;;;;;;;7.90;5.28;;;;;;;9.59;66.96;96481.77;1642982;86;25351;-74
2022/05/24 01:50:08;;;;;;;7.97;5.92;;;;;;;9.61;67.05;96482.36;1613605;87;25744;-74
2022/05/24 01:52:43;;;;;;;7.45;5.58;;;;;;;9.61;67.00;96494.49;1633650;87;25748;-74
2022/05/24 01:55:37;;;;;;;5.97;5.03;;;;;;;9.57;67.03;96484.38;1633517;87;25920;-75
2022/05/24 01:58:08;;;;;;;7.78;4.55;;;;;;;9.54;67.11;96485.66;1633581;87;27647;-74
2022/05/24 02:00:35;;;;;;;7.30;5.17;;;;;;;9.55;67.20;96484.61;1633538;87;25851;-74
2022/05/24 02:03:02;;;;;;;6.30;4.85;;;;;;;9.50;67.30;96486.35;1633377;87;25771;-74
2022/05/24 02:05:35;;;;;;;7.05;5.05;;;;;;;9.43;67.40;96486.42;1633490;87;25875;-74
2022/05/24 02:08:07;;;;;;;6.30;4.95;;;;;;;9.45;67.45;96487.55;1633563;87;25843;-74
2022/05/24 02:10:40;;;;;;;5.97;4.92;;;;;;;9.42;67.47;96483.98;1633675;87;27416;-75
2022/05/24 02:13:08;;;;;;;8.05;4.90;;;;;;;9.42;67.65;96486.12;1618271;88;25990;-74
2022/05/24 02:15:39;;;;;;;9.13;4.95;;;;;;;9.41;67.71;96490.41;1618295;88;25782;-74
2022/05/24 02:18:18;;;;;;;6.95;5.00;;;;;;;9.42;67.76;96492.85;1618153;88;25755;-74
2022/05/24 02:20:46;;;;;;;6.65;4.60;;;;;;;9.40;67.86;96490.94;1636388;84;25914;-74
2022/05/24 02:23:16;;;;;;;6.58;4.40;;;;;;;9.39;67.97;96489.28;1667479;86;27446;-75
2022/05/24 02:25:56;;;;;;;11.33;5.30;;;;;;;9.39;67.97;96483.90;1667371;86;25863;-74
2022/05/24 02:28:29;;;;;;;12.03;5.10;;;;;;;9.42;68.08;96483.42;1667503;86;25800;-74
2022/05/24 02:31:00;;;;;;;6.15;5.55;;;;;;;9.44;68.12;96480.51;1653853;86;26415;-74
2022/05/24 02:33:28;;;;;;;9.33;5.65;;;;;;;9.44;68.25;96481.33;1653981;86;25901;-74
2022/05/24 02:35:54;;;;;;;7.78;5.28;;;;;;;9.43;68.37;96484.25;1654049;86;27485;-74
2022/05/24 02:38:21;;;;;;;7.60;5.67;;;;;;;9.38;68.46;96483.59;1653922;86;25794;-75
2022/05/24 02:43:34;;;;;;;10.48;5.58;;;;;;;9.43;68.62;96482.38;1653846;86;25874;-74
2022/05/24 02:46:00;;;;;;;8.30;5.50;;;;;;;9.49;68.64;96486.05;1654108;86;25826;-74
2022/05/24 02:48:28;;;;;;;6.92;5.10;;;;;;;9.51;68.63;96475.35;1653763;86;27421;-74
2022/05/24 02:50:54;;;;;;;8.88;5.53;;;;;;;9.52;68.54;96477.00;1652100;86;25825;-75
2022/05/24 02:53:21;;;;;;;11.00;6.50;;;;;;;9.54;68.57;96476.22;1700020;83;25790;-75
2022/05/24 02:55:48;;;;;;;12.03;6.78;;;;;;;9.57;68.58;96463.66;1700519;84;25932;-76
2022/05/24 02:58:14;;;;;;;13.90;7.30;;;;;;;9.59;68.58;96470.16;1700649;83;25786;-74
2022/05/24 03:00:42;;;;;;;13.00;7.08;;;;;;;9.59;68.59;96464.25;1700555;84;27351;-74
2022/05/24 03:03:09;;;;;;;13.68;6.95;;;;;;;9.61;68.64;96472.94;1700427;83;25545;-74
2022/05/24 03:05:36;;;;;;;8.95;6.30;;;;;;;9.62;68.67;96470.54;1700579;84;25793;-74
2022/05/24 03:10:48;;;;;;;11.38;6.25;;;;;;;9.67;68.74;96467.14;1700444;84;25845;-75
2022/05/24 03:16:11;;;;;;;11.00;6.12;;;;;;;9.73;68.76;96473.80;1700254;83;26177;-74
2022/05/24 03:18:38;;;;;;;12.70;6.78;;;;;;;9.74;68.75;96474.10;1699085;84;25326;-74
2022/05/24 03:21:05;;;;;;;9.63;6.55;;;;;;;9.75;68.80;96466.31;1700671;84;25706;-74
2022/05/24 03:23:32;;;;;;;17.40;6.83;;;;;;;9.75;68.84;96466.31;1700664;83;25806;-74
2022/05/24 03:26:00;;;;;;;10.98;7.15;;;;;;;9.78;68.83;96469.61;1700604;84;27552;-74
2022/05/24 03:28:27;;;;;;;16.75;7.42;;;;;;;9.79;68.85;96467.19;1753346;80;25757;-75
2022/05/24 03:30:54;;;;;;;11.22;6.87;;;;;;;9.81;68.91;96464.56;1763693;80;25684;-75
2022/05/24 03:33:21;;;;;;;12.80;5.83;;;;;;;9.84;68.94;96463.29;1763658;81;25817;-75
2022/05/24 03:35:48;;;;;;;11.93;6.72;;;;;;;9.86;68.94;96471.45;1763732;80;25759;-74
2022/05/24 03:38:14;;;;;;;10.15;6.80;;;;;;;9.89;69.01;96466.13;1763637;80;27514;-75
2022/05/24 03:40:41;;;;;;;10.72;6.20;;;;;;;9.93;68.91;96475.39;1763307;80;25750;-74
2022/05/24 03:43:15;;;;;;;10.63;6.08;;;;;;;9.98;69.00;96476.88;1763527;81;25685;-75
2022/05/24 03:45:42;;;;;;;9.83;6.53;;;;;;;10.02;69.01;96480.77;1759649;81;25812;-74
2022/05/24 03:48:09;;;;;;;11.55;7.22;;;;;;;10.04;69.06;96482.16;1763642;80;25708;-74
2022/05/24 03:50:35;;;;;;;11.08;6.70;;;;;;;10.09;69.12;96485.00;1755658;81;28070;-74
2022/05/24 03:53:02;;;;;;;14.45;6.67;;;;;;;10.14;69.12;96486.19;1753824;80;25460;-74
2022/05/24 03:55:29;;;;;;;9.48;6.80;;;;;;;10.18;69.13;96476.08;1753978;80;25737;-73
2022/05/24 03:58:01;;;;;;;10.25;6.47;;;;;;;10.24;69.18;96471.12;1753799;81;25744;-75
2022/05/24 04:00:38;;;;;;;9.80;6.65;;;;;;;10.31;69.18;96474.52;1753861;80;25701;-74
2022/05/24 04:03:06;;;;;;;8.43;6.25;;;;;;;10.40;69.21;96481.73;1754063;80;28105;-75
2022/05/24 04:05:34;;;;;;;10.80;6.22;;;;;;;10.45;68.93;96485.39;1753820;80;25912;-75
2022/05/24 04:08:02;;;;;;;8.68;6.22;;;;;;;10.50;68.86;96483.88;1753769;81;25689;-73
2022/05/24 04:10:30;;;;;;;9.95;5.80;;;;;;;10.54;68.79;96478.30;1753618;80;25860;-75
2022/05/24 04:12:58;;;;;;;9.80;6.08;;;;;;;10.62;68.76;96475.27;1753663;81;25657;-75
2022/05/24 04:15:24;;;;;;;15.70;7.20;;;;;;;10.67;68.68;96475.38;1753827;80;27550;-75
2022/05/24 04:17:52;;;;;;;14.35;6.72;;;;;;;10.75;68.73;96479.06;1753646;80;25715;-74
2022/05/24 04:20:21;;;;;;;11.33;6.42;;;;;;;10.82;68.72;96482.48;1753753;81;25299;-74
2022/05/24 04:22:48;;;;;;;12.95;6.85;;;;;;;10.88;68.64;96481.52;1753819;81;26310;-75
2022/05/24 04:25:15;;;;;;;13.13;7.03;;;;;;;10.92;68.74;96475.14;1753609;81;25733;-74
2022/05/24 04:27:42;;;;;;;16.73;7.87;;;;;;;10.95;68.99;96470.63;1753785;81;27440;-75
2022/05/24 04:30:12;;;;;;;17.42;7.87;;;;;;;10.94;68.96;96467.09;1753371;81;25702;-74
2022/05/24 04:32:38;;;;;;;15.50;8.05;;;;;;;10.97;68.79;96462.58;1753775;80;25764;-73
2022/05/24 04:35:06;;;;;;;15.60;7.42;;;;;;;11.02;68.68;96465.91;1753722;80;25881;-74
2022/05/24 04:37:33;;;;;;;15.23;7.15;;;;;;;11.04;68.71;96459.22;1753772;80;25666;-73
2022/05/24 04:39:59;;;;;;;15.48;7.05;;;;;;;11.10;68.67;96459.63;1753580;80;27437;-74
2022/05/24 04:42:26;;;;;;;13.30;6.67;;;;;;;11.15;68.69;96457.55;1753421;80;25821;-74
2022/05/24 04:44:59;;;;;;;11.38;5.50;;;;;;;11.19;68.64;96454.14;1753674;80;25705;-74
2022/05/24 04:47:30;;;;;;;13.53;6.15;;;;;;;11.22;68.75;96453.38;1753755;81;25775;-74
2022/05/24 04:50:00;;;;;;;9.85;6.62;;;;;;;11.26;68.66;96455.35;1757422;80;25665;-74
2022/05/24 04:52:31;;;;;;;11.28;6.85;;;;;;;11.33;68.60;96459.28;1763228;81;27445;-74
2022/05/24 04:54:58;;;;;;;12.40;5.87;;;;;;;11.41;68.58;96462.95;1763248;80;25664;-74
2022/05/24 04:57:25;;;;;;;8.33;5.80;;;;;;;11.49;68.46;96469.33;1763611;81;25720;-74
2022/05/24 04:59:52;;;;;;;8.93;6.33;;;;;;;11.54;68.40;96465.39;1763430;81;25810;-74
2022/05/24 05:02:20;;;;;;;13.22;6.50;;;;;;;11.60;68.30;96465.77;1763476;81;26350;-74
2022/05/24 05:04:48;;;;;;;9.08;6.67;;;;;;;11.69;68.21;96470.28;1763389;80;27630;-74
2022/05/24 05:07:21;;;;;;;10.65;6.60;;;;;;;11.77;68.17;96476.14;1763249;81;25455;-75
2022/05/24 05:09:50;;;;;;;11.90;6.95;;;;;;;11.82;68.09;96472.20;1763427;80;25724;-74
2022/05/24 05:12:18;;;;;;;13.75;6.47;;;;;;;11.89;68.04;96471.51;1763387;81;25787;-74
2022/05/24 05:14:45;;;;;;;11.30;6.90;;;;;;;11.98;68.12;96475.16;1763408;81;25740;-74
2022/05/24 05:17:12;;;;;;;14.95;7.42;;;;;;;12.06;68.08;96480.20;1763414;80;27291;-74
2022/05/24 05:19:40;;;;;;;12.05;6.45;;;;;;;12.16;68.12;96479.03;1763443;80;25733;-75
2022/05/24 05:22:07;;;;;;;8.20;5.58;;;;;;;12.26;68.00;96483.25;1763500;80;25732;-74
2022/05/24 05:24:34;;;;;;;10.70;5.78;;;;;;;12.35;67.94;96487.20;1763094;81;25725;-75
2022/05/24 05:27:01;;;;;;;11.40;5.17;;;;;;;12.46;67.75;96484.95;1763396;81;25680;-74
2022/05/24 05:32:22;;;;;;;7.35;5.58;;;;;;;12.67;67.52;96486.65;1763429;81;25650;-75
2022/05/24 05:34:49;;;;;;;7.90;4.78;;;;;;;12.77;67.37;96479.50;1763363;81;25692;-75
2022/05/24 05:37:16;;;;;;;21.70;8.68;;;;;;;12.87;67.17;96482.89;1763135;81;25742;-75
2022/05/24 05:39:43;;;;;;;16.25;9.45;;;;;;;12.95;66.77;96486.52;1763403;80;25763;-75
2022/05/24 05:42:10;;;;;;;14.03;6.78;;;;;;;13.01;66.59;96477.42;1763516;81;27354;-75
2022/05/24 05:44:36;;;;;;;8.68;6.42;;;;;;;13.11;66.49;96479.45;1763455;80;25582;-76
2022/05/24 05:47:04;;;;;;;7.03;5.08;;;;;;;13.18;66.21;96486.34;1763404;81;25697;-75
2022/05/24 05:49:30;;;;;;;7.95;5.30;;;;;;;13.24;65.89;96488.08;1760478;81;26403;-75
2022/05/24 05:51:57;;;;;;;8.28;5.47;;;;;;;13.32;65.69;96488.16;1727369;83;26685;-75
2022/05/24 05:54:24;;;;;;;7.70;5.12;;;;;;;13.40;65.49;96487.75;1727241;83;27431;-75
2022/05/24 05:56:51;;;;;;;10.32;4.62;;;;;;;13.48;65.44;96478.34;1727344;83;25925;-74
2022/05/24 05:59:18;;;;;;;7.70;4.80;;;;;;;13.57;65.35;96474.11;1727590;83;25663;-76
2022/05/24 06:01:45;;;;;;;9.80;5.58;;;;;;;13.66;65.35;96476.66;1727655;83;25822;-76
2022/05/24 06:04:11;;;;;;;7.78;5.08;;;;;;;13.77;65.27;96479.77;1727577;82;25679;-75
2022/05/24 06:06:42;;;;;;;4.87;4.37;;;;;;;13.86;65.33;96485.59;1727507;83;27440;-75
2022/05/24 06:09:08;;;;;;;5.80;3.83;;;;;;;13.95;65.26;96486.23;1727346;83;25784;-75
2022/05/24 06:11:35;;;;;;;5.35;4.37;;;;;;;14.01;64.96;96484.38;1727684;83;25789;-74
2022/05/24 06:14:02;;;;;;;7.20;4.22;;;;;;;14.04;64.71;96490.66;1727487;83;26729;-75
2022/05/24 06:16:29;;;;;;;7.53;4.20;;;;;;;14.08;64.70;96493.16;1727656;82;25274;-74
2022/05/24 06:18:55;;;;;;;5.45;3.50;;;;;;;14.13;64.67;96493.75;1727686;83;27345;-75
2022/05/24 06:21:22;;;;;;;4.00;3.37;;;;;;;14.16;64.59;96494.04;1727432;83;25718;-75
2022/05/24 06:23:49;;;;;;;6.30;3.60;;;;;;;14.20;64.55;96495.71;1727837;83;25734;-74
2022/05/24 06:26:18;;;;;;;6.47;4.05;;;;;;;14.23;64.28;96493.85;1727480;83;26445;-75
2022/05/24 06:28:44;;;;;;;6.65;3.95;;;;;;;14.27;64.23;96497.67;1727703;82;25462;-75
2022/05/24 06:31:10;;;;;;;5.47;4.17;;;;;;;14.31;64.06;96496.09;1727824;83;28056;-75
2022/05/24 06:33:37;;;;;;;6.97;3.42;;;;;;;14.35;63.91;96497.23;1727562;82;25701;-74
2022/05/24 06:36:04;;;;;;;6.97;3.98;;;;;;;14.41;64.02;96498.93;1727433;83;25664;-75
2022/05/24 06:38:32;;;;;;;7.42;4.28;;;;;;;14.45;64.07;96495.99;1727515;83;25674;-75
2022/05/24 06:40:58;;;;;;;4.80;3.87;;;;;;;14.51;64.00;96492.77;1727457;82;25681;-75
2022/05/24 06:43:25;;;;;;;5.03;4.05;;;;;;;14.56;63.90;96500.44;1727674;83;27577;-75
2022/05/24 06:45:52;;;;;;;5.12;3.95;;;;;;;14.61;63.82;96499.67;1727545;83;25662;-75
2022/05/24 06:48:19;;;;;;;5.97;4.53;;;;;;;14.64;63.47;96502.66;1727271;83;25689;-74
2022/05/24 06:50:45;;;;;;;5.42;4.53;;;;;;;14.70;63.74;96498.93;1727304;81;25945;-75
2022/05/24 06:53:12;;;;;;;6.33;4.10;;;;;;;14.77;63.57;96504.13;1727621;83;25657;-75
2022/05/24 06:55:38;;;;;;;8.23;3.95;;;;;;;14.82;63.43;96506.08;1727488;83;27501;-75
2022/05/24 06:58:06;;;;;;;8.85;4.30;;;;;;;14.91;63.43;96508.59;1727301;83;25667;-75
2022/05/24 07:03:18;;;;;;;6.97;3.70;;;;;;;15.11;63.09;96508.19;1727176;83;25706;-75
2022/05/24 07:05:45;;;;;;;7.25;3.62;;;;;;;15.28;63.37;96513.47;1727486;82;25677;-75
2022/05/24 07:08:12;;;;;;;8.83;3.85;;;;;;;15.39;63.09;96502.92;1727556;82;27373;-74
2022/05/24 07:10:40;;;;;;;4.65;4.03;;;;;;;15.47;62.88;96498.88;1727492;83;25695;-73
2022/05/24 07:13:11;;;;;;;7.47;4.20;;;;;;;15.53;62.74;96498.38;1727669;83;25713;-75
2022/05/24 07:15:38;;;;;;;4.67;3.83;;;;;;;15.58;62.65;96503.88;1727456;83;25735;-74
2022/05/24 07:18:05;;;;;;;4.47;3.80;;;;;;;15.67;62.54;96499.56;1727565;82;25465;-74
2022/05/24 07:20:34;;;;;;;5.37;3.52;;;;;;;15.74;62.49;96500.13;1727481;83;27412;-75
2022/05/24 07:23:17;;;;;;;4.87;3.65;;;;;;;15.80;61.92;96492.28;1727429;82;25773;-74
2022/05/24 07:25:46;;;;;;;8.35;3.45;;;;;;;15.83;61.54;96502.61;1727556;82;25742;-74
2022/05/24 07:28:18;;;;;;;7.80;3.37;;;;;;;15.92;60.77;96498.84;1727411;83;25767;-75
2022/05/24 07:30:47;;;;;;;5.97;2.90;;;;;;;15.99;59.93;96506.21;1747497;81;25252;-74
2022/05/24 07:33:16;;;;;;;5.20;2.52;;;;;;;16.06;59.49;96508.95;1752971;81;27423;-74
2022/05/24 07:35:43;;;;;;;4.80;3.37;;;;;;;16.10;59.08;96504.61;1752585;81;25678;-74
2022/05/24 07:38:12;;;;;;;6.35;3.20;;;;;;;16.14;58.81;96505.72;1752883;81;25691;-74
2022/05/24 07:46:13;;;;;;;7.12;3.00;;;;;;;16.33;58.68;96503.30;1752992;81;28158;-74
2022/05/24 07:48:41;;;;;;;7.45;3.02;;;;;;;16.41;58.36;96505.52;1753035;81;25690;-74
2022/05/24 07:51:08;;;;;;;5.15;3.05;;;;;;;16.47;57.96;96503.59;1760711;80;25709;-75
2022/05/24 07:53:35;;;;;;;4.95;3.30;;;;;;;16.50;57.88;96507.15;1770337;81;25839;-74
2022/05/24 07:56:02;;;;;;;7.87;3.10;;;;;;;16.53;57.51;96502.53;1770271;81;25626;-73
2022/05/24 07:58:30;;;;;;;2.98;2.67;;;;;;;16.55;57.10;96495.70;1767482;81;28293;-75
2022/05/24 08:00:59;;;;;;;3.52;2.80;;;;;;;16.58;56.81;96494.34;1767252;81;25646;-73
2022/05/24 08:03:26;;;;;;;4.65;2.90;;;;;;;16.63;56.65;96499.84;1767329;81;25769;-75
2022/05/24 08:05:53;;;;;;;6.05;3.20;;;;;;;16.65;56.39;96497.67;1767696;81;26841;-75
2022/05/24 08:08:20;;;;;;;3.92;2.67;;;;;;;16.69;56.22;96502.83;1767604;81;25802;-75
2022/05/24 08:10:46;;;;;;;3.37;2.67;;;;;;;16.74;56.07;96500.12;1767429;81;28390;-75
2022/05/24 08:13:16;;;;;;;6.35;3.17;;;;;;;16.77;55.88;96500.95;1767530;81;25702;-74
2022/05/24 08:15:43;;;;;;;6.05;3.22;;;;;;;16.81;55.79;96499.83;1767559;81;25871;-74
2022/05/24 08:18:10;;;;;;;4.17;3.25;;;;;;;16.86;55.90;96494.39;1767501;81;25750;-75
2022/05/24 08:20:38;;;;;;;7.47;3.42;;;;;;;16.90;56.15;96496.28;1767586;81;25465;-75
2022/05/24 08:23:06;;;;;;;4.47;3.15;;;;;;;16.93;55.98;96497.10;1767592;81;27611;-75
2022/05/24 08:25:33;;;;;;;6.83;3.65;;;;;;;16.95;55.76;96496.02;1767441;81;26208;-75
2022/05/24 08:28:02;;;;;;;6.60;3.15;;;;;;;17.03;56.30;96491.36;1767505;81;25725;-75
2022/05/24 08:30:29;;;;;;;4.53;3.33;;;;;;;17.15;56.63;96498.71;1767333;81;26707;-75
2022/05/24 08:32:56;;;;;;;6.35;3.45;;;;;;;17.26;56.54;96497.63;1767514;81;25870;-76
2022/05/24 08:35:24;;;;;;;10.82;3.15;;;;;;;17.33;56.33;96500.06;1767556;81;27543;-75
2022/05/24 08:37:50;;;;;;;3.80;2.98;;;;;;;17.36;55.58;96500.88;1767488;81;25732;-74
2022/05/24 08:40:20;;;;;;;6.83;3.67;;;;;;;17.37;55.45;96504.70;1767496;81;25795;-75
2022/05/24 08:43:16;;;;;;;4.95;3.70;;;;;;;17.42;55.21;96503.30;1767519;81;25757;-76
2022/05/24 08:48:55;;;;;;;5.30;2.95;;;;;;;17.55;54.71;96510.91;1698470;84;28457;-74
2022/05/24 08:51:36;;;;;;;10.45;3.27;;;;;;;17.62;54.68;96509.27;1698490;84;25879;-76
2022/05/24 08:54:22;;;;;;;5.25;2.87;;;;;;;17.66;54.33;96507.63;1569528;91;25817;-74
2022/05/24 08:56:54;;;;;;;5.55;2.85;;;;;;;17.73;54.27;96509.54;1524733;94;26321;-74
2022/05/24 08:59:37;;;;;;;9.35;3.50;;;;;;;17.80;53.93;96507.86;1525053;94;32854;-73
2022/05/24 09:02:07;;;;;;;8.13;3.50;;;;;;;17.82;53.93;96508.41;1502301;95;27538;-75
2022/05/24 09:04:33;;;;;;;3.20;2.67;;;;;;;17.87;53.79;96507.03;1502483;95;26015;-75
2022/05/24 09:07:20;;;;;;;3.35;2.98;;;;;;;17.98;53.68;96504.53;1502542;95;25887;-74
2022/05/24 09:10:04;;;;;;;3.17;2.87;;;;;;;18.08;53.45;96504.47;1502480;95;25809;-75
2022/05/24 09:13:01;;;;;;;6.90;3.27;;;;;;;18.15;52.90;96504.97;1475849;97;25839;-76
2022/05/24 09:15:54;;;;;;;5.78;2.98;;;;;;;18.24;52.78;96502.45;1475897;97;27428;-75
2022/05/24 09:18:38;;;;;;;9.25;3.22;;;;;;;18.30;52.52;96507.63;1475975;97;25849;-74
2022/05/24 09:21:05;;;;;;;8.03;3.00;;;;;;;18.40;52.69;96500.46;1474014;97;25800;-76
2022/05/24 09:23:52;;;;;;;5.45;3.22;;;;;;;18.50;52.75;96491.64;1490138;96;25973;-75
2022/05/24 09:29:14;;;;;;;8.60;3.27;;;;;;;18.85;52.41;96485.12;1476654;97;27605;-76
2022/05/24 09:31:48;;;;;;;3.22;2.47;;;;;;;19.19;51.80;96488.40;1521494;92;25957;-76
2022/05/24 09:34:23;;;;;;;4.67;2.55;;;;;;;19.40;51.46;96492.01;1547672;92;25986;-75
2022/05/24 09:36:57;;;;;;;8.03;3.45;;;;;;;19.54;51.21;96490.80;1547516;92;26525;-77
2022/05/24 09:39:31;;;;;;;8.08;2.70;;;;;;;19.60;50.85;96490.99;1548273;92;25968;-75
2022/05/24 09:42:14;;;;;;;3.33;2.55;;;;;;;19.64;50.74;96498.89;1548997;92;27428;-74
2022/05/24 09:44:51;;;;;;;9.95;3.00;;;;;;;19.71;50.30;96502.09;1548859;92;25886;-74
2022/05/24 09:47:45;;;;;;;4.25;2.60;;;;;;;19.76;50.28;96495.20;1548948;92;25845;-75
2022/05/24 09:50:38;;;;;;;6.03;2.85;;;;;;;19.83;49.89;96498.94;1601752;88;25850;-75
2022/05/24 09:53:22;;;;;;;7.50;2.60;;;;;;;19.81;49.63;96500.33;1613857;88;25759;-76
2022/05/24 09:56:05;;;;;;;9.15;2.95;;;;;;;19.78;49.36;96502.57;1579900;90;27458;-74
2022/05/24 09:58:36;;;;;;;4.12;2.55;;;;;;;19.78;49.42;96495.73;1559624;90;25835;-75
2022/05/24 10:01:08;;;;;;;3.72;2.70;;;;;;;19.87;49.39;96496.44;1579948;90;25775;-78
2022/05/24 10:03:48;;;;;;;4.85;2.58;;;;;;;19.91;49.24;96498.31;1586194;89;25918;-75
2022/05/24 10:06:31;;;;;;;6.08;2.80;;;;;;;19.90;48.82;96489.83;1594475;89;25821;-77
2022/05/24 10:09:04;;;;;;;5.20;2.85;;;;;;;19.93;48.85;96495.25;1594594;89;27465;-75
2022/05/24 10:11:35;;;;;;;6.67;2.40;;;;;;;20.05;48.93;96495.65;1594660;89;33146;-74
2022/05/24 10:14:17;;;;;;;4.05;2.62;;;;;;;20.23;48.75;96497.62;1594995;88;25787;-76
2022/05/24 10:16:59;;;;;;;7.22;3.00;;;;;;;20.38;48.40;96493.33;1594337;89;25749;-76
2022/05/24 10:20:11;;;;;;;9.88;3.00;;;;;;;20.47;48.12;96490.73;1496358;94;25969;-75
2022/05/24 10:23:08;;;;;;;3.42;2.30;;;;;;;20.58;47.95;96487.28;1495864;94;27464;-74
2022/05/24 10:26:06;;;;;;;4.45;2.72;;;;;;;20.61;47.04;96490.25;1504110;94;25784;-75
2022/05/24 10:29:04;;;;;;;7.78;2.60;;;;;;;20.68;47.00;96491.23;1518474;94;25359;-75
2022/05/24 10:31:36;;;;;;;4.42;2.70;;;;;;;20.77;46.54;96491.62;1518422;94;25856;-75
2022/05/24 10:40:31;;;;;;;5.30;2.35;;;;;;;21.31;46.09;96475.67;1494110;96;25881;-76
2022/05/24 10:43:33;;;;;;;4.37;2.80;;;;;;;21.54;45.64;96493.35;1494317;95;26684;-74
2022/05/24 10:46:05;;;;;;;3.10;2.42;;;;;;;21.70;45.67;96502.12;1494505;95;25748;-76
2022/05/24 10:48:43;;;;;;;6.12;2.62;;;;;;;21.70;45.03;96496.63;1494473;95;25571;-74
2022/05/24 10:51:36;;;;;;;9.13;2.30;;;;;;;21.84;45.22;96491.14;1519185;91;27416;-74
2022/05/24 10:54:37;;;;;;;3.30;2.60;;;;;;;22.13;45.14;96492.20;1565051;91;26647;-74
2022/05/24 10:57:18;;;;;;;7.28;2.58;;;;;;;22.20;44.44;96496.75;1626042;85;25827;-73
2022/05/24 11:00:14;;;;;;;3.37;2.62;;;;;;;22.16;44.12;96496.54;1671630;85;25715;-74
2022/05/24 11:03:00;;;;;;;7.80;3.05;;;;;;;22.09;44.04;96491.22;1666258;86;25797;-73
2022/05/24 11:05:46;;;;;;;4.25;2.70;;;;;;;22.02;44.04;96492.17;1663897;86;27406;-74
2022/05/24 11:08:45;;;;;;;3.35;2.75;;;;;;;22.08;44.07;96485.46;1666202;86;25757;-74
2022/05/24 11:11:51;;;;;;;5.83;2.80;;;;;;;21.98;43.82;96487.80;1663326;86;25832;-74
2022/05/24 11:14:41;;;;;;;4.12;2.60;;;;;;;21.96;43.57;96486.51;1666067;86;26439;-74
2022/05/24 11:17:12;;;;;;;8.25;3.00;;;;;;;22.00;43.55;96487.53;1666524;86;25811;-74
2022/05/24 11:19:49;;;;;;;3.72;2.80;;;;;;;22.05;43.54;96488.81;1666197;86;27423;-74
2022/05/24 11:22:24;;;;;;;5.58;2.95;;;;;;;22.11;43.46;96484.27;1664558;86;25780;-75
2022/05/24 11:25:02;;;;;;;3.37;2.70;;;;;;;22.21;43.45;96478.58;1666268;86;25760;-72
2022/05/24 11:27:45;;;;;;;4.87;2.85;;;;;;;22.38;43.65;96471.59;1668270;84;25832;-71
2022/05/24 11:30:19;;;;;;;5.75;2.70;;;;;;;22.58;43.59;96477.44;1632709;87;25817;-74
2022/05/24 11:32:56;;;;;;;5.72;3.05;;;;;;;22.78;43.19;96483.08;1635448;86;27465;-73
2022/05/24 11:35:27;;;;;;;8.18;3.50;;;;;;;23.02;42.89;96471.76;1612582;87;25780;-72
2022/05/24 11:37:56;;;;;;;8.18;2.92;;;;;;;23.19;42.73;96473.23;1598281;88;25868;-73
2022/05/24 11:40:40;;;;;;;9.80;3.12;;;;;;;23.13;42.36;96465.43;1598907;88;25873;-72
2022/05/24 11:43:32;;;;;;;6.65;2.80;;;;;;;23.12;42.41;96470.13;1568298;90;26094;-73
2022/05/24 11:46:03;;;;;;;;;;;;;;;23.11;42.12;96462.98;1530997;93;27469;-73
2022/05/24 11:48:44;;;;;;;6.00;2.90;;;;;;;23.10;41.68;96465.48;1482485;96;25913;-75
2022/05/24 11:51:41;;;;;;;6.28;3.45;;;;;;;23.05;41.81;96455.19;1501781;94;25831;-72
2022/05/24 11:54:22;;;;;;;5.83;3.02;;;;;;;22.96;41.67;96461.98;1468878;97;25843;-74
2022/05/24 11:57:03;;;;;;;7.30;3.05;;;;;;;22.95;41.62;96454.30;1469256;97;25982;-73
2022/05/24 11:59:46;;;;;;;4.58;3.30;;;;;;;23.06;41.48;96457.63;1468669;97;28177;-72
2022/05/24 12:07:53;;;;;;;8.35;3.83;;;;;;;23.12;41.57;96454.98;1469362;97;25791;-72
2022/05/24 12:08:04;;;;;;;16.25;4.10;;;;;;;23.82;41.46;96445.94;1434960;99;25958;-72
2022/05/24 12:10:48;;;;;;;6.25;3.52;;;;;;;24.11;41.40;96445.95;1446954;99;25919;-74
2022/05/24 12:13:26;;;;;;;6.53;3.47;;;;;;;24.22;40.75;96442.59;1477131;96;27519;-73
2022/05/24 12:15:57;;;;;;;7.22;3.72;;;;;;;24.43;40.44;96442.77;1518289;94;25764;-73
2022/05/24 12:18:40;;;;;;;10.80;2.87;;;;;;;24.61;40.25;96447.17;1518269;94;25918;-73
2022/05/24 12:21:08;;;;;;;4.08;2.70;;;;;;;24.63;39.82;96444.09;1516092;94;26374;-74
2022/05/24 12:23:41;;;;;;;5.80;2.98;;;;;;;24.64;39.36;96436.84;1518219;94;25814;-73
2022/05/24 12:26:17;;;;;;;10.63;3.30;;;;;;;24.61;39.47;96439.47;1529951;93;27595;-74
2022/05/24 12:28:52;;;;;;;5.62;2.70;;;;;;;24.51;39.20;96446.12;1578457;89;25890;-73
2022/05/24 12:31:25;;;;;;;8.68;2.98;;;;;;;24.37;39.22;96438.00;1578432;90;25913;-72
2022/05/24 12:34:06;;;;;;;4.53;3.30;;;;;;;24.37;39.73;96434.42;1585362;89;25838;-72
2022/05/24 12:36:44;;;;;;;5.23;3.27;;;;;;;24.30;39.58;96439.59;1591746;89;25949;-73
2022/05/24 12:39:16;;;;;;;12.98;3.33;;;;;;;24.21;39.70;96438.74;1592557;89;28320;-73